Summit Point, West Virginia
Current Conditions -  °F | °C
As of 2:53 PM on Thursday 30 Oct 2014 (Local Time) from KMRB Reporting Station
Overcast Overcast  
Wind Chill: 55°   Ceiling: 4900
Heat Index: 55°   Visibility: 10mi
Dew Point: 33°   Wind: 12mph
Humidity: 43%   Direction: 320°NW
Pressure: 30.05"   Gusts: NA
Location:  39.25°N, 77.96°W
Report Text: KMRB 301853Z 32010KT 10SM OVC049 13/01 A3005 RMK AO2 SLP176 T01280006
Loading
Personal Weather Stations






























Interactive Weather Map
Tropical Storm Tracking
New forecast layout! Learn more

10-Day Weather Forecast

Advertisements
Track Severe Weather on mobile